메인 페이지
METAR-TAF:

METAR-TAF

공항 :

윌크스바 / Scranton, 펜실베이니아, 미국

위도: 41-20-20N, 경도: 075-43-36W, 고도: 293m

현재 날씨관측

예보는 1 시간 9분 전, 10:54시(UTC)에 발표되었습니다.
4kt
온도 -4°C
습도 54%
기압 1013 hPa
시정: 16.1km
맑음

METAR: KAVP 031054Z 19004KT 10SM CLR M04/M12 A2992 RMK AO2 SLP141 T10441117

시각: 07:03 (12:03 UTC)

예보

예보는 20분 전, 11:43시(UTC)에 발표되었습니다.
예보 대상 시간: 03일 12시부터 04일 12시까지 (UTC)
남서6kt
시정: 10km
맑음
03일 1800시부터 (UTC)
9kt
시정: 10km
고도 8000ft 상공 구름 조금
03일 2300시부터 (UTC)
5kt
시정: 10km
고도 4500ft 상공 구름 많음
04일 0300시부터 (UTC)
북서5kt
시정: 10km
고도 3500ft 상공 구름 조금
고도 5000ft 상공 구름 많음
04일 0700시부터 (UTC)
북서6kt
시정: 10km
고도 2900ft 상공 구름 많음
04일 1100시부터 (UTC)
북서7kt
시정: 10km
고도 1800ft 상공 구름 많음

TAF: KAVP 031143Z 0312/0412 23006KT P6SM SKC FM031800 26009KT P6SM FEW080 FM032300 28005KT P6SM BKN045 FM040300 32005KT P6SM FEW035 BKN050 FM040700 31006KT P6SM BKN029 FM041100 31007KT P6SM BKN018

4,000개 이상의 공항 관측 자료 및 예보 (METAR 및 TAF 보고).

지도상에서 검색 가능한 기상관측소가 노란 점과 빨간 점으로 표시되어 있습니다.

기상관측소 명을 보려면 표시 위로 마우스를 이동하세요.

날씨 관측과 예보를 보려면 클릭하세요.

지도 변경 : 확대하려면 엑스 표시가 있는 녹색 버튼, 축소하려면 빼기 표시가 있는 녹색 버튼, 다음 페이지의 지도를 보려면 녹색 화살표를 클릭하세요.


METAR-TAF: